createdAt,value
2023-04-18T00:01:01.734Z,18.48
2023-04-18T00:04:05.139Z,20.00
2023-04-18T00:07:07.992Z,20.48
2023-04-18T00:10:10.751Z,20.63
2023-04-18T00:13:14.642Z,21.25
2023-04-18T00:16:17.230Z,21.50
2023-04-18T00:19:20.079Z,22.08
2023-04-18T00:22:22.757Z,21.77
2023-04-18T00:25:25.417Z,21.17
2023-04-18T00:28:29.435Z,20.85
2023-04-18T00:31:32.499Z,20.25
2023-04-18T00:34:35.032Z,19.30
2023-04-18T00:37:38.121Z,22.13
2023-04-18T00:40:41.091Z,19.73
2023-04-18T00:43:45.023Z,20.42
2023-04-18T00:46:48.202Z,20.25
2023-04-18T00:49:50.751Z,21.15
2023-04-18T00:52:53.266Z,19.83
2023-04-18T00:55:56.049Z,20.17
2023-04-18T00:59:00.251Z,18.30
2023-04-18T01:02:03.794Z,18.27
2023-04-18T01:05:07.227Z,17.00
2023-04-18T01:08:09.809Z,17.77
2023-04-18T01:11:12.388Z,17.88
2023-04-18T01:14:16.329Z,17.15
2023-04-18T01:17:19.231Z,14.80
2023-04-18T01:20:22.656Z,14.23
2023-04-18T01:23:25.809Z,14.60
2023-04-18T01:26:29.929Z,14.27
2023-04-18T01:29:32.495Z,13.93
2023-04-18T01:32:35.008Z,13.75
2023-04-18T01:35:37.540Z,11.98
2023-04-18T01:38:40.112Z,11.77
2023-04-18T01:41:44.004Z,11.70
2023-04-18T01:44:46.576Z,11.85
2023-04-18T01:47:49.206Z,11.18
2023-04-18T01:50:51.740Z,10.48
2023-04-18T01:53:54.338Z,10.35
2023-04-18T01:56:58.232Z,9.93
2023-04-18T02:00:01.741Z,10.43
2023-04-18T02:03:04.618Z,9.63
2023-04-18T02:06:07.871Z,9.20
2023-04-18T02:09:10.728Z,8.85
2023-04-18T02:12:14.582Z,9.80
2023-04-18T02:15:17.066Z,9.48
2023-04-18T02:18:19.598Z,8.68
2023-04-18T02:21:22.636Z,9.18
2023-04-18T02:24:25.201Z,9.15
2023-04-18T02:27:29.100Z,8.52
2023-04-18T02:30:31.611Z,7.90
2023-04-18T02:33:34.166Z,8.85
2023-04-18T02:36:36.760Z,8.32
2023-04-18T02:39:39.299Z,8.02
2023-04-18T02:42:43.203Z,8.18
2023-04-18T02:45:45.799Z,9.60
2023-04-18T02:48:48.384Z,8.32
2023-04-18T02:51:50.991Z,8.35
2023-04-18T02:54:53.539Z,9.30
2023-04-18T02:57:57.807Z,8.98
2023-04-18T03:01:00.595Z,8.85
2023-04-18T03:04:03.249Z,9.15
2023-04-18T03:07:05.822Z,9.07
2023-04-18T03:10:08.867Z,8.75
2023-04-18T03:13:12.762Z,8.88
2023-04-18T03:16:15.828Z,9.20
2023-04-18T03:19:18.470Z,9.27
2023-04-18T03:22:20.991Z,8.98
2023-04-18T03:25:23.504Z,8.93
2023-04-18T03:28:27.386Z,9.82
2023-04-18T03:31:29.953Z,9.85
2023-04-18T03:34:32.507Z,10.00
2023-04-18T03:37:35.145Z,10.18
2023-04-18T03:40:37.706Z,9.45
2023-04-18T03:43:41.634Z,9.70
2023-04-18T03:46:44.189Z,10.50
2023-04-18T03:49:46.742Z,9.60
2023-04-18T03:52:49.269Z,10.23
2023-04-18T03:55:51.819Z,10.68
2023-04-18T03:58:55.696Z,9.23
2023-04-18T04:01:58.376Z,11.52
2023-04-18T04:05:02.561Z,10.25
2023-04-18T04:08:06.717Z,9.57
2023-04-18T04:11:09.378Z,10.25
2023-04-18T04:14:13.487Z,10.40
2023-04-18T04:17:16.382Z,10.32
2023-04-18T04:20:24.093Z,10.07
2023-04-18T04:23:26.784Z,10.27
2023-04-18T04:26:30.676Z,10.27
2023-04-18T04:29:35.209Z,9.80
2023-04-18T04:32:38.901Z,9.95
2023-04-18T04:35:41.777Z,10.65
2023-04-18T04:38:44.951Z,9.65
2023-04-18T04:41:47.521Z,9.30
2023-04-18T04:44:53.604Z,9.95
2023-04-18T04:47:56.174Z,10.40
2023-04-18T04:50:59.509Z,9.73
2023-04-18T04:54:02.046Z,9.95
2023-04-18T04:57:05.269Z,10.57
2023-04-18T05:00:11.360Z,9.57
2023-04-18T05:03:14.065Z,9.95
2023-04-18T05:06:20.517Z,10.43
2023-04-18T05:09:23.079Z,10.07
2023-04-18T05:12:26.755Z,10.73
2023-04-18T05:15:30.633Z,10.20
2023-04-18T05:18:35.124Z,10.23
2023-04-18T05:21:37.883Z,11.05
2023-04-18T05:24:41.124Z,11.02
2023-04-18T05:27:43.994Z,11.05
2023-04-18T05:30:47.921Z,11.52
2023-04-18T05:33:50.455Z,11.63
2023-04-18T05:36:53.038Z,10.23
2023-04-18T05:39:55.675Z,11.38
2023-04-18T05:42:58.220Z,10.73
2023-04-18T05:46:02.109Z,11.93
2023-04-18T05:49:04.729Z,11.35
2023-04-18T05:52:07.294Z,12.50
2023-04-18T05:55:10.520Z,11.07
2023-04-18T05:58:13.100Z,11.25
2023-04-18T06:01:18.510Z,11.55
2023-04-18T06:04:21.666Z,12.40
2023-04-18T06:07:25.350Z,11.18
2023-04-18T06:10:27.853Z,12.35
2023-04-18T06:13:30.332Z,11.05
2023-04-18T06:16:34.319Z,11.07
2023-04-18T06:19:36.987Z,11.50
2023-04-18T06:22:39.573Z,10.60
2023-04-18T06:25:42.272Z,12.65
2023-04-18T06:28:44.810Z,11.60
2023-04-18T06:31:48.707Z,11.52
2023-04-18T06:34:52.804Z,11.73
2023-04-18T06:37:55.522Z,12.43
2023-04-18T06:40:58.116Z,11.25
2023-04-18T06:44:04.199Z,11.68
2023-04-18T06:47:08.628Z,11.40
2023-04-18T06:50:11.593Z,12.07
2023-04-18T06:53:14.183Z,11.90
2023-04-18T06:56:16.759Z,11.48
2023-04-18T06:59:21.331Z,11.32
2023-04-18T07:02:25.291Z,11.80
2023-04-18T07:05:27.876Z,12.50
2023-04-18T07:08:30.725Z,11.63
2023-04-18T07:11:33.296Z,10.25
2023-04-18T07:14:35.878Z,11.05
2023-04-18T07:17:39.873Z,10.60
2023-04-18T07:20:42.654Z,11.27
2023-04-18T07:23:45.176Z,10.70
2023-04-18T07:26:47.741Z,11.60
2023-04-18T07:29:50.340Z,11.02
2023-04-18T07:32:54.304Z,11.00
2023-04-18T07:35:56.953Z,10.73
2023-04-18T07:38:59.499Z,12.25
2023-04-18T07:42:02.328Z,12.00
2023-04-18T07:45:05.770Z,12.55
2023-04-18T07:48:09.717Z,11.02
2023-04-18T07:51:12.294Z,11.65
2023-04-18T07:54:14.866Z,10.85
2023-04-18T07:57:17.403Z,11.27
2023-04-18T08:00:20.399Z,10.48
2023-04-18T08:03:24.492Z,11.75
2023-04-18T08:06:27.429Z,9.68
2023-04-18T08:09:30.022Z,9.52
2023-04-18T08:12:32.570Z,8.93
2023-04-18T08:15:35.207Z,8.50
2023-04-18T08:18:39.095Z,8.95
2023-04-18T08:21:41.709Z,9.15
2023-04-18T08:25:01.029Z,9.75
2023-04-18T08:28:06.647Z,8.70
2023-04-18T08:31:13.009Z,9.25
2023-04-18T08:34:16.914Z,8.02
2023-04-18T08:37:19.506Z,8.70
2023-04-18T08:40:22.154Z,9.38
2023-04-18T08:43:25.340Z,7.75
2023-04-18T08:46:29.969Z,7.78
2023-04-18T08:49:33.917Z,8.20
2023-04-18T08:52:37.631Z,7.95
2023-04-18T08:55:40.455Z,8.00
2023-04-18T08:58:45.085Z,7.10
2023-04-18T09:01:52.814Z,6.90
2023-04-18T09:04:57.379Z,6.15
2023-04-18T09:07:59.949Z,5.57
2023-04-18T09:11:24.010Z,5.40
2023-04-18T09:14:27.225Z,5.88
2023-04-18T09:17:33.921Z,5.18
2023-04-18T09:20:39.907Z,5.10
2023-04-18T09:23:42.411Z,5.75
2023-04-18T09:26:44.922Z,4.72
2023-04-18T09:29:49.336Z,6.25
2023-04-18T09:32:58.261Z,5.40
2023-04-18T09:36:20.815Z,6.28
2023-04-18T09:39:28.118Z,6.45
2023-04-18T09:42:32.025Z,5.90
2023-04-18T09:45:34.560Z,6.32
2023-04-18T09:48:37.162Z,5.15
2023-04-18T09:51:41.416Z,5.85
2023-04-18T09:54:44.862Z,5.65
2023-04-18T09:57:49.289Z,5.63
2023-04-18T10:00:52.169Z,4.65
2023-04-18T10:03:54.810Z,5.22
2023-04-18T10:06:58.838Z,5.13
2023-04-18T10:10:01.366Z,5.30
2023-04-18T10:13:03.892Z,5.72
2023-04-18T10:16:06.886Z,5.65
2023-04-18T10:19:23.561Z,4.32
2023-04-18T10:22:29.366Z,5.85
2023-04-18T10:25:49.182Z,5.75
2023-04-18T10:28:54.439Z,5.60
2023-04-18T10:31:57.366Z,6.47
2023-04-18T10:35:00.483Z,5.85
2023-04-18T10:38:04.324Z,6.13
2023-04-18T10:41:23.597Z,5.82
2023-04-18T10:44:27.464Z,4.85
2023-04-18T10:47:30.073Z,5.15
2023-04-18T10:50:32.825Z,5.10
2023-04-18T10:53:36.696Z,4.88
2023-04-18T10:56:39.563Z,5.20
2023-04-18T10:59:43.731Z,5.63
2023-04-18T11:02:50.267Z,5.10
2023-04-18T11:05:52.965Z,6.00
2023-04-18T11:09:12.440Z,3.65
2023-04-18T11:12:14.984Z,4.80
2023-04-18T11:15:21.218Z,6.18
2023-04-18T11:18:23.934Z,4.10
2023-04-18T11:21:30.319Z,5.25
2023-04-18T11:24:34.888Z,5.25
2023-04-18T11:27:37.431Z,5.43
2023-04-18T11:30:40.334Z,6.38
2023-04-18T11:33:42.854Z,4.95
2023-04-18T11:36:45.417Z,5.35
2023-04-18T11:39:49.325Z,5.00
2023-04-18T11:42:51.867Z,4.30
2023-04-18T11:45:54.984Z,4.90
2023-04-18T11:48:57.587Z,5.20
2023-04-18T11:52:01.081Z,5.35
2023-04-18T11:55:14.011Z,4.97
2023-04-18T11:58:16.760Z,5.20
2023-04-18T12:01:19.700Z,4.18
2023-04-18T12:04:22.531Z,4.35
2023-04-18T12:07:35.966Z,4.82
2023-04-18T12:10:46.069Z,5.55
2023-04-18T12:13:48.668Z,3.80
2023-04-18T12:16:51.192Z,4.05
2023-04-18T12:19:55.391Z,3.63
2023-04-18T12:22:58.474Z,3.72
2023-04-18T12:26:03.636Z,3.88
2023-04-18T12:29:06.192Z,4.60
2023-04-18T12:32:08.698Z,3.80
2023-04-18T12:35:11.276Z,4.45
2023-04-18T12:38:13.785Z,4.20
2023-04-18T12:41:17.736Z,3.00
2023-04-18T12:44:20.784Z,3.65
2023-04-18T12:47:23.336Z,3.33
2023-04-18T12:50:26.597Z,3.25
2023-04-18T12:53:29.182Z,3.63
2023-04-18T12:56:33.093Z,3.72
2023-04-18T12:59:35.681Z,3.90
2023-04-18T13:02:38.794Z,5.10
2023-04-18T13:05:41.623Z,5.60
2023-04-18T13:08:44.494Z,5.85
2023-04-18T13:11:49.608Z,5.35
2023-04-18T13:14:52.277Z,5.55
2023-04-18T13:17:55.826Z,5.53
2023-04-18T13:20:58.404Z,5.10
2023-04-18T13:24:00.945Z,6.65
2023-04-18T13:27:10.213Z,5.70
2023-04-18T13:30:13.053Z,5.93
2023-04-18T13:33:15.704Z,6.70
2023-04-18T13:36:18.294Z,6.80
2023-04-18T13:39:21.384Z,6.85
2023-04-18T13:42:25.312Z,6.82
2023-04-18T13:45:28.249Z,7.35
2023-04-18T13:48:30.898Z,6.93
2023-04-18T13:51:33.804Z,5.90
2023-04-18T13:54:37.272Z,5.63
2023-04-18T13:57:41.235Z,6.97
2023-04-18T14:00:43.833Z,6.70
2023-04-18T14:03:47.269Z,7.03
2023-04-18T14:06:50.059Z,6.75
2023-04-18T14:09:53.823Z,6.55
2023-04-18T14:12:58.006Z,6.75
2023-04-18T14:16:00.718Z,5.95
2023-04-18T14:19:03.349Z,7.00
2023-04-18T14:22:07.118Z,6.45
2023-04-18T14:25:10.865Z,7.20
2023-04-18T14:28:15.609Z,6.82
2023-04-18T14:31:18.156Z,7.88
2023-04-18T14:34:20.775Z,7.28
2023-04-18T14:37:23.332Z,7.45
2023-04-18T14:40:25.924Z,7.63
2023-04-18T14:43:29.909Z,8.75
2023-04-18T14:46:32.499Z,7.65
2023-04-18T14:49:35.119Z,6.88
2023-04-18T14:52:37.709Z,9.18
2023-04-18T14:55:40.424Z,8.55
2023-04-18T14:58:44.802Z,9.40
2023-04-18T15:01:47.472Z,7.40
2023-04-18T15:04:50.935Z,9.25
2023-04-18T15:07:53.499Z,8.95
2023-04-18T15:10:56.182Z,8.30
2023-04-18T15:14:00.131Z,10.10
2023-04-18T15:17:02.883Z,8.60
2023-04-18T15:20:07.275Z,8.48
2023-04-18T15:23:13.491Z,7.38
2023-04-18T15:26:16.424Z,9.50
2023-04-18T15:29:20.621Z,8.68
2023-04-18T15:32:23.246Z,10.00
2023-04-18T15:35:26.194Z,9.88
2023-04-18T15:38:29.668Z,9.57
2023-04-18T15:41:34.792Z,9.13
2023-04-18T15:44:38.699Z,9.43
2023-04-18T15:47:41.636Z,9.30
2023-04-18T15:50:44.222Z,9.10
2023-04-18T15:53:46.751Z,7.28
2023-04-18T15:56:49.286Z,9.50
2023-04-18T15:59:53.133Z,9.60
2023-04-18T16:02:55.853Z,10.02
2023-04-18T16:05:58.482Z,8.82
2023-04-18T16:09:01.041Z,6.97
2023-04-18T16:12:04.624Z,8.60
2023-04-18T16:15:09.782Z,7.63
2023-04-18T16:18:12.326Z,9.32
2023-04-18T16:21:15.147Z,9.77
2023-04-18T16:24:17.741Z,10.43
2023-04-18T16:27:20.513Z,9.38
2023-04-18T16:30:24.388Z,8.23
2023-04-18T16:33:27.073Z,6.82
2023-04-18T16:36:29.741Z,6.95
2023-04-18T16:39:32.270Z,9.65
2023-04-18T16:42:34.812Z,7.35
2023-04-18T16:45:38.740Z,7.78
2023-04-18T16:48:41.707Z,7.95
2023-04-18T16:51:44.232Z,8.75
2023-04-18T16:54:46.825Z,10.25
2023-04-18T16:57:49.349Z,9.10
2023-04-18T17:00:53.668Z,9.52
2023-04-18T17:03:56.299Z,7.93
2023-04-18T17:06:59.023Z,6.82
2023-04-18T17:10:01.593Z,8.73
2023-04-18T17:13:04.411Z,8.43
2023-04-18T17:16:08.870Z,8.68
2023-04-18T17:19:11.485Z,8.90
2023-04-18T17:22:14.091Z,9.23
2023-04-18T17:25:16.681Z,7.75
2023-04-18T17:28:19.420Z,6.97
2023-04-18T17:31:23.415Z,7.10
2023-04-18T17:34:26.900Z,8.80
2023-04-18T17:37:29.422Z,8.60
2023-04-18T17:40:31.911Z,7.97
2023-04-18T17:43:34.440Z,6.60
2023-04-18T17:46:38.416Z,8.77
2023-04-18T17:49:40.956Z,8.52
2023-04-18T17:52:43.919Z,8.15
2023-04-18T17:55:50.343Z,7.95
2023-04-18T17:58:55.285Z,8.20
2023-04-18T18:02:00.377Z,8.10
2023-04-18T18:05:02.899Z,8.98
2023-04-18T18:08:05.782Z,8.95
2023-04-18T18:11:08.920Z,8.70
2023-04-18T18:14:11.467Z,9.07
2023-04-18T18:17:15.313Z,7.95
2023-04-18T18:20:17.913Z,8.93
2023-04-18T18:23:20.471Z,8.05
2023-04-18T18:26:22.964Z,9.27
2023-04-18T18:29:25.541Z,8.07
2023-04-18T18:32:29.519Z,8.30
2023-04-18T18:35:32.101Z,7.28
2023-04-18T18:38:34.652Z,8.52
2023-04-18T18:41:37.144Z,9.25
2023-04-18T18:44:39.711Z,8.27
2023-04-18T18:47:43.604Z,8.18
2023-04-18T18:50:46.110Z,8.70
2023-04-18T18:53:48.633Z,9.32
2023-04-18T18:56:51.692Z,8.93
2023-04-18T18:59:55.853Z,9.18
2023-04-18T19:03:00.235Z,8.60
2023-04-18T19:06:04.186Z,8.43
2023-04-18T19:09:07.116Z,9.23
2023-04-18T19:12:09.918Z,9.02
2023-04-18T19:15:12.965Z,9.48
2023-04-18T19:18:18.228Z,9.63
2023-04-18T19:21:21.065Z,8.27
2023-04-18T19:24:23.643Z,8.02
2023-04-18T19:27:26.907Z,8.40
2023-04-18T19:30:29.622Z,8.88
2023-04-18T19:33:33.485Z,8.73
2023-04-18T19:36:36.015Z,8.98
2023-04-18T19:39:38.571Z,8.80
2023-04-18T19:42:41.153Z,8.30
2023-04-18T19:45:43.750Z,8.15
2023-04-18T19:48:47.624Z,7.85
2023-04-18T19:51:51.371Z,9.10
2023-04-18T19:54:53.982Z,9.18
2023-04-18T19:57:56.692Z,8.80
2023-04-18T20:00:59.349Z,8.45
2023-04-18T20:04:03.749Z,8.30
2023-04-18T20:07:06.510Z,13.10
2023-04-18T20:10:10.321Z,10.07
2023-04-18T20:13:12.893Z,8.23
2023-04-18T20:16:16.764Z,7.90
2023-04-18T20:19:20.675Z,8.73
2023-04-18T20:22:24.794Z,8.60
2023-04-18T20:25:27.385Z,9.32
2023-04-18T20:28:30.185Z,8.55
2023-04-18T20:31:32.758Z,8.27
2023-04-18T20:34:37.630Z,7.90
2023-04-18T20:37:41.262Z,8.85
2023-04-18T20:40:44.793Z,7.18
2023-04-18T20:43:47.361Z,9.30
2023-04-18T20:46:49.940Z,10.20
2023-04-18T20:49:53.789Z,10.10
2023-04-18T20:52:56.363Z,10.27
2023-04-18T20:55:58.934Z,9.82
2023-04-18T20:59:01.473Z,11.13
2023-04-18T21:02:04.382Z,9.30
2023-04-18T21:05:08.975Z,9.10
2023-04-18T21:08:11.766Z,12.43
2023-04-18T21:11:14.276Z,9.50
2023-04-18T21:14:17.222Z,9.10
2023-04-18T21:17:20.113Z,8.25
2023-04-18T21:20:24.214Z,7.80
2023-04-18T21:23:26.740Z,8.20
2023-04-18T21:26:29.295Z,8.82
2023-04-18T21:29:31.892Z,8.38
2023-04-18T21:32:34.478Z,8.10
2023-04-18T21:35:38.436Z,7.70
2023-04-18T21:38:41.000Z,8.30
2023-04-18T21:41:43.572Z,5.97
2023-04-18T21:44:46.162Z,9.07
2023-04-18T21:47:49.486Z,7.80
2023-04-18T21:50:56.005Z,8.05
2023-04-18T21:53:58.921Z,8.18
2023-04-18T21:57:02.478Z,8.18
2023-04-18T22:00:07.316Z,8.05
2023-04-18T22:03:12.091Z,8.50
2023-04-18T22:06:16.557Z,9.10
2023-04-18T22:09:19.326Z,7.85
2023-04-18T22:12:22.038Z,7.43
2023-04-18T22:15:26.779Z,8.20
2023-04-18T22:18:30.498Z,8.15
2023-04-18T22:21:34.408Z,9.90
2023-04-18T22:24:37.002Z,9.00
2023-04-18T22:27:39.546Z,8.93
2023-04-18T22:30:42.147Z,8.80
2023-04-18T22:33:44.726Z,8.70
2023-04-18T22:36:48.600Z,8.35
2023-04-18T22:39:51.101Z,8.02
2023-04-18T22:42:54.248Z,9.45
2023-04-18T22:45:56.835Z,9.88
2023-04-18T22:48:59.561Z,8.20
2023-04-18T22:52:03.526Z,9.15
2023-04-18T22:55:06.860Z,8.75
2023-04-18T22:58:09.858Z,8.07
2023-04-18T23:01:12.476Z,8.20
2023-04-18T23:04:15.356Z,8.95
2023-04-18T23:07:19.521Z,8.40
2023-04-18T23:10:22.486Z,8.05
2023-04-18T23:13:25.076Z,8.32
2023-04-18T23:16:28.152Z,8.90
2023-04-18T23:19:30.693Z,8.30
2023-04-18T23:22:34.580Z,8.73
2023-04-18T23:25:37.111Z,7.57
2023-04-18T23:28:39.722Z,8.30
2023-04-18T23:31:42.329Z,8.30
2023-04-18T23:34:46.086Z,7.25
2023-04-18T23:37:50.139Z,7.70
2023-04-18T23:40:52.714Z,7.45
2023-04-18T23:43:55.264Z,7.90
2023-04-18T23:46:57.785Z,8.40
2023-04-18T23:50:00.361Z,7.13
2023-04-18T23:53:04.272Z,6.95
2023-04-18T23:56:07.793Z,7.43
2023-04-18T23:59:10.388Z,7.18
